createdAt,value
2023-05-12T00:03:11.145Z,13.00
2023-05-12T00:08:13.231Z,13.10
2023-05-12T00:13:15.727Z,13.00
2023-05-12T00:18:18.069Z,13.00
2023-05-12T00:23:20.036Z,12.90
2023-05-12T00:28:22.101Z,13.00
2023-05-12T00:33:24.107Z,12.90
2023-05-12T00:38:26.215Z,12.80
2023-05-12T00:43:28.559Z,12.70
2023-05-12T00:48:31.202Z,12.70
2023-05-12T00:53:47.659Z,12.60
2023-05-12T00:58:50.140Z,12.50
2023-05-12T01:03:52.972Z,12.30
2023-05-12T01:08:55.832Z,12.20
2023-05-12T01:13:58.137Z,12.10
2023-05-12T01:19:02.130Z,12.00
2023-05-12T01:24:08.694Z,12.00
2023-05-12T01:29:11.907Z,12.00
2023-05-12T01:34:18.707Z,11.90
2023-05-12T01:39:24.078Z,11.80
2023-05-12T01:44:26.652Z,11.80
2023-05-12T01:49:28.967Z,11.60
2023-05-12T01:54:31.189Z,11.60
2023-05-12T01:59:33.250Z,11.50
2023-05-12T02:04:36.593Z,11.50
2023-05-12T02:09:39.220Z,11.50
2023-05-12T02:14:41.314Z,11.40
2023-05-12T02:19:43.619Z,11.40
2023-05-12T02:24:48.120Z,11.40
2023-05-12T02:29:50.137Z,11.30
2023-05-12T02:34:53.442Z,11.30
2023-05-12T02:39:55.574Z,11.30
2023-05-12T02:44:59.100Z,11.20
2023-05-12T02:50:01.317Z,11.10
2023-05-12T02:55:04.011Z,11.10
2023-05-12T03:00:06.950Z,11.10
2023-05-12T03:05:12.033Z,11.20
2023-05-12T03:10:14.081Z,11.30
2023-05-12T03:15:16.277Z,11.40
2023-05-12T03:20:19.230Z,11.50
2023-05-12T03:25:21.730Z,11.40
2023-05-12T03:30:23.740Z,11.50
2023-05-12T03:35:27.125Z,11.50
2023-05-12T03:40:29.286Z,11.50
2023-05-12T03:45:31.554Z,11.50
2023-05-12T03:50:33.711Z,11.50
2023-05-12T03:55:35.781Z,11.60
2023-05-12T04:00:39.268Z,11.60
2023-05-12T04:05:42.946Z,11.60
2023-05-12T04:10:44.975Z,11.70
2023-05-12T04:15:47.292Z,11.70
2023-05-12T04:20:49.301Z,11.80
2023-05-12T04:25:51.296Z,11.90
2023-05-12T04:30:53.563Z,11.90
2023-05-12T04:35:58.494Z,11.90
2023-05-12T04:41:01.176Z,12.00
2023-05-12T04:46:03.817Z,12.10
2023-05-12T04:51:06.158Z,12.20
2023-05-12T04:56:08.864Z,12.40
2023-05-12T05:01:13.822Z,12.50
2023-05-12T05:06:16.310Z,12.50
2023-05-12T05:11:19.113Z,12.50
2023-05-12T05:16:22.386Z,12.60
2023-05-12T05:21:25.552Z,12.60
2023-05-12T05:26:27.721Z,12.60
2023-05-12T05:31:29.808Z,12.70
2023-05-12T05:36:32.466Z,12.70
2023-05-12T05:41:34.585Z,12.70
2023-05-12T05:46:37.613Z,12.90
2023-05-12T05:51:39.694Z,12.90
2023-05-12T05:56:42.003Z,13.10
2023-05-12T06:01:45.144Z,13.30
2023-05-12T06:06:47.336Z,13.60
2023-05-12T06:11:49.457Z,13.70
2023-05-12T06:16:52.020Z,14.10
2023-05-12T06:21:54.098Z,14.40
2023-05-12T06:26:56.725Z,14.60
2023-05-12T06:31:59.305Z,14.60
2023-05-12T06:37:01.347Z,14.90
2023-05-12T06:42:04.126Z,14.90
2023-05-12T06:47:15.495Z,15.10
2023-05-12T06:52:17.587Z,15.30
2023-05-12T06:57:19.614Z,15.60
2023-05-12T07:02:21.852Z,15.80
2023-05-12T07:07:24.012Z,16.00
2023-05-12T07:12:26.038Z,16.20
2023-05-12T07:17:29.187Z,16.40
2023-05-12T07:22:32.699Z,16.60
2023-05-12T07:27:35.275Z,16.80
2023-05-12T07:32:37.393Z,17.00
2023-05-12T07:37:39.491Z,17.00
2023-05-12T07:42:41.568Z,17.50
2023-05-12T07:47:43.693Z,18.00
2023-05-12T07:52:52.826Z,18.40
2023-05-12T07:57:54.858Z,18.30
2023-05-12T08:02:57.062Z,18.30
2023-05-12T08:07:59.365Z,18.20
2023-05-12T08:13:01.448Z,18.00
2023-05-12T08:18:03.719Z,17.70
2023-05-12T08:23:05.814Z,17.40
2023-05-12T08:28:07.855Z,17.60
2023-05-12T08:33:10.028Z,18.00
2023-05-12T08:38:12.100Z,18.40
2023-05-12T08:43:30.213Z,19.10
2023-05-12T08:48:34.852Z,19.70
2023-05-12T08:53:38.717Z,20.10
2023-05-12T08:58:42.815Z,20.40
2023-05-12T09:03:45.016Z,20.40
2023-05-12T09:08:47.207Z,20.70
2023-05-12T09:14:03.108Z,20.80
2023-05-12T09:19:07.013Z,21.50
2023-05-12T09:24:09.430Z,22.60
2023-05-12T09:29:18.028Z,23.80
2023-05-12T09:34:35.859Z,25.70
2023-05-12T09:39:37.877Z,26.70
2023-05-12T09:44:41.367Z,26.70
2023-05-12T09:49:47.182Z,26.40
2023-05-12T09:54:49.256Z,26.70
2023-05-12T09:59:52.446Z,28.20
2023-05-12T10:05:00.631Z,29.30
2023-05-12T10:10:05.705Z,31.40
2023-05-12T10:15:09.701Z,31.60
2023-05-12T10:20:13.707Z,32.90
2023-05-12T10:25:18.110Z,33.20
2023-05-12T10:30:20.645Z,33.00
2023-05-12T10:35:33.936Z,33.90
2023-05-12T10:40:36.189Z,32.80
2023-05-12T10:45:38.255Z,33.80
2023-05-12T10:50:54.013Z,34.60
2023-05-12T10:55:57.181Z,36.30
2023-05-12T11:01:08.195Z,36.30
2023-05-12T11:06:19.432Z,37.30
2023-05-12T11:11:22.794Z,38.20
2023-05-12T11:16:25.867Z,38.20
2023-05-12T11:21:29.381Z,38.20
2023-05-12T11:26:31.509Z,35.70
2023-05-12T11:31:33.824Z,36.40
2023-05-12T11:36:39.634Z,36.90
2023-05-12T11:41:41.690Z,37.10
2023-05-12T11:47:00.945Z,37.30
2023-05-12T11:52:03.749Z,36.30
2023-05-12T11:57:06.112Z,34.40
2023-05-12T12:02:08.778Z,33.70
2023-05-12T12:07:11.114Z,34.10
2023-05-12T12:12:13.262Z,33.90
2023-05-12T12:17:15.304Z,33.10
2023-05-12T12:22:17.720Z,31.80
2023-05-12T12:27:19.845Z,33.00
2023-05-12T12:32:21.926Z,31.80
2023-05-12T12:37:23.928Z,31.50
2023-05-12T12:42:26.126Z,32.60
2023-05-12T12:47:28.227Z,31.50
2023-05-12T12:52:30.682Z,29.60
2023-05-12T12:57:32.767Z,28.80
2023-05-12T13:02:35.002Z,27.80
2023-05-12T13:07:37.661Z,26.90
2023-05-12T13:12:39.868Z,26.50
2023-05-12T13:17:41.974Z,26.30
2023-05-12T13:22:44.705Z,26.30
2023-05-12T13:27:46.928Z,26.40
2023-05-12T13:32:49.081Z,27.50
2023-05-12T13:37:51.193Z,27.90
2023-05-12T13:42:53.201Z,28.00
2023-05-12T13:47:55.350Z,28.00
2023-05-12T13:52:57.656Z,27.90
2023-05-12T13:57:59.894Z,28.30
2023-05-12T14:03:02.149Z,30.60
2023-05-12T14:08:04.486Z,30.70
2023-05-12T14:13:08.507Z,30.30
2023-05-12T14:18:10.933Z,30.70
2023-05-12T14:23:13.192Z,32.20
2023-05-12T14:28:15.568Z,33.10
2023-05-12T14:33:17.805Z,31.10
2023-05-12T14:38:19.865Z,28.90
2023-05-12T14:43:22.166Z,27.40
2023-05-12T14:48:26.292Z,26.00
2023-05-12T14:53:28.397Z,25.30
2023-05-12T14:58:31.077Z,24.80
2023-05-12T15:03:33.914Z,24.70
2023-05-12T15:08:36.074Z,24.60
2023-05-12T15:13:38.123Z,25.90
2023-05-12T15:18:40.251Z,30.30
2023-05-12T15:23:43.520Z,34.10
2023-05-12T15:28:45.718Z,34.80
2023-05-12T15:33:47.891Z,36.20
2023-05-12T15:38:49.918Z,35.80
2023-05-12T15:43:51.966Z,36.20
2023-05-12T15:48:54.111Z,34.80
2023-05-12T15:53:56.269Z,32.10
2023-05-12T15:58:58.297Z,30.50
2023-05-12T16:04:00.891Z,31.20
2023-05-12T16:09:03.164Z,31.10
2023-05-12T16:14:05.860Z,32.20
2023-05-12T16:19:08.210Z,34.40
2023-05-12T16:24:11.326Z,36.20
2023-05-12T16:29:13.920Z,35.30
2023-05-12T16:34:16.139Z,35.60
2023-05-12T16:39:18.371Z,36.40
2023-05-12T16:44:20.454Z,36.10
2023-05-12T16:49:23.160Z,35.60
2023-05-12T16:54:25.313Z,35.90
2023-05-12T16:59:27.304Z,35.70
2023-05-12T17:04:29.461Z,34.70
2023-05-12T17:09:31.496Z,34.10
2023-05-12T17:14:35.172Z,33.50
2023-05-12T17:19:42.024Z,32.10
2023-05-12T17:24:44.690Z,31.40
2023-05-12T17:29:46.808Z,31.50
2023-05-12T17:34:52.110Z,31.20
2023-05-12T17:39:54.277Z,31.40
2023-05-12T17:44:56.369Z,31.40
2023-05-12T17:49:58.548Z,30.70
2023-05-12T17:55:00.523Z,29.70
2023-05-12T18:00:07.380Z,28.30
2023-05-12T18:05:16.168Z,27.10
2023-05-12T18:10:19.306Z,25.70
2023-05-12T18:15:22.951Z,24.10
2023-05-12T18:20:27.894Z,22.90
2023-05-12T18:25:29.951Z,22.10
2023-05-12T18:30:32.346Z,21.40
2023-05-12T18:35:34.373Z,20.90
2023-05-12T18:40:36.463Z,20.60
2023-05-12T18:45:38.485Z,20.10
2023-05-12T18:50:40.658Z,19.80
2023-05-12T18:55:42.896Z,19.60
2023-05-12T19:00:45.466Z,19.30
2023-05-12T19:05:49.272Z,19.10
2023-05-12T19:10:51.862Z,18.80
2023-05-12T19:15:53.995Z,18.60
2023-05-12T19:20:56.144Z,18.40
2023-05-12T19:25:58.715Z,18.20
2023-05-12T19:31:00.965Z,18.00
2023-05-12T19:36:03.349Z,17.80
2023-05-12T19:41:05.430Z,17.60
2023-05-12T19:46:08.784Z,17.50
2023-05-12T19:51:11.168Z,17.30
2023-05-12T19:56:13.261Z,17.10
2023-05-12T20:01:15.453Z,17.00
2023-05-12T20:06:17.912Z,16.90
2023-05-12T20:11:20.133Z,16.80
2023-05-12T20:16:22.468Z,16.70
2023-05-12T20:21:24.651Z,16.60
2023-05-12T20:26:27.543Z,16.50
2023-05-12T20:31:29.921Z,16.50
2023-05-12T20:36:33.124Z,16.40
2023-05-12T20:41:35.324Z,16.40
2023-05-12T20:46:38.731Z,16.30
2023-05-12T20:51:41.015Z,16.20
2023-05-12T20:56:43.050Z,16.10
2023-05-12T21:01:45.153Z,16.10
2023-05-12T21:06:47.473Z,16.00
2023-05-12T21:11:49.467Z,15.90
2023-05-12T21:16:51.527Z,15.80
2023-05-12T21:21:53.520Z,15.80
2023-05-12T21:26:55.723Z,15.70
2023-05-12T21:31:58.026Z,15.50
2023-05-12T21:37:00.527Z,15.40
2023-05-12T21:42:02.711Z,15.20
2023-05-12T21:47:04.937Z,15.10
2023-05-12T21:52:06.980Z,15.10
2023-05-12T21:57:08.980Z,14.90
2023-05-12T22:02:11.223Z,14.80
2023-05-12T22:07:13.272Z,14.80
2023-05-12T22:12:18.547Z,14.80
2023-05-12T22:17:20.576Z,14.80
2023-05-12T22:22:22.630Z,14.70
2023-05-12T22:27:24.906Z,14.70
2023-05-12T22:32:27.012Z,14.70
2023-05-12T22:37:29.382Z,14.70
2023-05-12T22:42:31.396Z,14.60
2023-05-12T22:47:33.645Z,14.60
2023-05-12T22:52:35.760Z,14.50
2023-05-12T22:57:41.177Z,14.40
2023-05-12T23:02:43.346Z,14.30
2023-05-12T23:07:45.582Z,14.20
2023-05-12T23:12:47.562Z,14.20
2023-05-12T23:17:49.632Z,14.00
2023-05-12T23:22:51.689Z,14.00
2023-05-12T23:27:53.684Z,13.90
2023-05-12T23:32:56.011Z,13.80
2023-05-12T23:37:58.284Z,13.80
2023-05-12T23:43:00.375Z,13.60
2023-05-12T23:48:02.443Z,13.50
2023-05-12T23:53:04.504Z,13.30
2023-05-12T23:58:07.076Z,13.20
